Lubbock, TX (79401)

9:59 PM CDT on July 30, 2016 (GMT -0500)
APRSWXNET | | Change Station

Elev 3221 ft 33.58 °N, 101.88 °W | Updated 22 minutes ago

Scattered Clouds
Scattered Clouds
84 °F
Feels Like 84 °F
N
7
Wind Variable Wind from SE
Gusts 21.0 mph

Today
High -- | Low -- °F
--% Chance of Precip.
Yesterday
High -- | Low -- °F
Precip. -- in
Pressure 29.86 in
Visibility 10.0 miles
Clouds Few 6500 ft
Few 25000 ft
Scattered Clouds 30000 ft
Heat Index 84 °F
Dew Point 60 °F
Humidity 44%
Rainfall in
Snow Depth Not available.
6:58 AM 8:48 PM
Waning Crescent, 9% visible
METAR KLBB 310253Z 12010KT 10SM FEW065 FEW250 SCT300 26/16 A3001 RMK AO2 SLP110 CONS LTGICCG DSNT SE CB DSNT SE T02610156 53010
Pressure 29.86 in
Visibility 10.0 miles
Clouds Few 6500 ft
Few 25000 ft
Scattered Clouds 30000 ft
Heat Index 84 °F
Dew Point 60 °F
Humidity 44%
Rainfall in
Snow Depth Not available.
6:58 AM 8:48 PM
Waning Crescent, 9% visible
METAR KLBB 310253Z 12010KT 10SM FEW065 FEW250 SCT300 26/16 A3001 RMK AO2 SLP110 CONS LTGICCG DSNT SE CB DSNT SE T02610156 53010

10-Day Weather Forecast

Almanac

Astronomy

Jul. 30, 2016 Rise Set
Actual Time
Civil Twilight
Nautical Twilight
Astronomical Twilight
Moon
Length of Visible Light
Length of Day
Tomorrow will be .
, % of the Moon is Illuminated

Today's Extremes

State Highs State Lows

Community

WunderPhotos

Upload Photos

1,928,715 photos uploaded!

WunderBlog® & News

Nearby

Air Quality

  Air Quality AQ Index Pollutant
Not available.

Snow Depth

Station Depth Elevation

Earthquake Activity

City Distance Mag. Time & Date
Minimum magnitude displayed is 2.5.

Coastal Water Temperatures

Place Temperature

Stations

Nearby Weather Stations

Station Location Temp. Windchill Dew Point Humidity Wind Precip. Elev Updated Type
                   

Watches & Warnings

There are currently no watches in effect.